sensor_id;sensor_type;location;lat;lon;timestamp;P1;durP1;ratioP1;P2;durP2;ratioP2
10651;SDS011;5374;42.742;23.266;2024-02-23T00:00:27;14.33;;;9.60;;
10651;SDS011;5374;42.742;23.266;2024-02-23T00:03:14;13.43;;;10.23;;
10651;SDS011;5374;42.742;23.266;2024-02-23T00:06:02;12.47;;;9.23;;
10651;SDS011;5374;42.742;23.266;2024-02-23T00:08:49;13.63;;;9.17;;
10651;SDS011;5374;42.742;23.266;2024-02-23T00:11:39;12.90;;;9.90;;
10651;SDS011;5374;42.742;23.266;2024-02-23T00:14:31;10.33;;;9.17;;
10651;SDS011;5374;42.742;23.266;2024-02-23T00:17:21;12.73;;;10.53;;
10651;SDS011;5374;42.742;23.266;2024-02-23T00:20:10;14.03;;;10.53;;
10651;SDS011;5374;42.742;23.266;2024-02-23T00:22:58;13.73;;;9.77;;
10651;SDS011;5374;42.742;23.266;2024-02-23T00:25:45;10.67;;;8.50;;
10651;SDS011;5374;42.742;23.266;2024-02-23T00:28:32;10.03;;;8.93;;
10651;SDS011;5374;42.742;23.266;2024-02-23T00:31:20;12.30;;;8.70;;
10651;SDS011;5374;42.742;23.266;2024-02-23T00:34:07;10.07;;;8.37;;
10651;SDS011;5374;42.742;23.266;2024-02-23T00:36:56;18.17;;;13.27;;
10651;SDS011;5374;42.742;23.266;2024-02-23T00:39:43;12.90;;;9.67;;
10651;SDS011;5374;42.742;23.266;2024-02-23T00:42:30;15.07;;;11.07;;
10651;SDS011;5374;42.742;23.266;2024-02-23T00:45:17;13.23;;;8.37;;
10651;SDS011;5374;42.742;23.266;2024-02-23T00:48:06;11.17;;;9.37;;
10651;SDS011;5374;42.742;23.266;2024-02-23T00:50:54;10.20;;;8.33;;
10651;SDS011;5374;42.742;23.266;2024-02-23T00:53:41;11.00;;;8.67;;
10651;SDS011;5374;42.742;23.266;2024-02-23T00:56:28;10.20;;;8.47;;
10651;SDS011;5374;42.742;23.266;2024-02-23T00:59:15;13.97;;;11.07;;
10651;SDS011;5374;42.742;23.266;2024-02-23T01:02:03;13.17;;;9.40;;
10651;SDS011;5374;42.742;23.266;2024-02-23T01:04:52;12.53;;;9.50;;
10651;SDS011;5374;42.742;23.266;2024-02-23T01:07:42;11.17;;;9.33;;
10651;SDS011;5374;42.742;23.266;2024-02-23T01:10:29;10.93;;;9.00;;
10651;SDS011;5374;42.742;23.266;2024-02-23T01:13:18;9.50;;;8.03;;
10651;SDS011;5374;42.742;23.266;2024-02-23T01:16:05;9.23;;;7.23;;
10651;SDS011;5374;42.742;23.266;2024-02-23T01:18:53;10.80;;;8.57;;
10651;SDS011;5374;42.742;23.266;2024-02-23T01:21:42;9.87;;;7.87;;
10651;SDS011;5374;42.742;23.266;2024-02-23T01:24:29;10.70;;;8.40;;
10651;SDS011;5374;42.742;23.266;2024-02-23T01:27:16;14.20;;;8.83;;
10651;SDS011;5374;42.742;23.266;2024-02-23T01:30:04;14.47;;;9.07;;
10651;SDS011;5374;42.742;23.266;2024-02-23T01:32:52;10.50;;;8.37;;
10651;SDS011;5374;42.742;23.266;2024-02-23T01:35:39;10.33;;;8.33;;
10651;SDS011;5374;42.742;23.266;2024-02-23T01:38:29;10.73;;;8.53;;
10651;SDS011;5374;42.742;23.266;2024-02-23T01:41:18;9.40;;;8.40;;
10651;SDS011;5374;42.742;23.266;2024-02-23T01:44:05;12.97;;;9.17;;
10651;SDS011;5374;42.742;23.266;2024-02-23T01:46:52;13.07;;;9.20;;
10651;SDS011;5374;42.742;23.266;2024-02-23T01:49:39;11.20;;;8.57;;
10651;SDS011;5374;42.742;23.266;2024-02-23T01:52:26;11.47;;;9.30;;
10651;SDS011;5374;42.742;23.266;2024-02-23T01:55:15;11.47;;;8.73;;
10651;SDS011;5374;42.742;23.266;2024-02-23T01:58:03;10.23;;;7.70;;
10651;SDS011;5374;42.742;23.266;2024-02-23T02:00:51;11.00;;;9.00;;
10651;SDS011;5374;42.742;23.266;2024-02-23T02:03:38;10.77;;;8.70;;
10651;SDS011;5374;42.742;23.266;2024-02-23T02:06:26;11.10;;;9.60;;
10651;SDS011;5374;42.742;23.266;2024-02-23T02:09:13;13.27;;;9.67;;
10651;SDS011;5374;42.742;23.266;2024-02-23T02:12:02;12.07;;;9.60;;
10651;SDS011;5374;42.742;23.266;2024-02-23T02:14:49;12.17;;;9.30;;
10651;SDS011;5374;42.742;23.266;2024-02-23T02:17:36;11.87;;;9.37;;
10651;SDS011;5374;42.742;23.266;2024-02-23T02:20:24;10.77;;;9.30;;
10651;SDS011;5374;42.742;23.266;2024-02-23T02:23:12;12.50;;;8.97;;
10651;SDS011;5374;42.742;23.266;2024-02-23T02:26:00;11.87;;;9.10;;
10651;SDS011;5374;42.742;23.266;2024-02-23T02:28:48;11.83;;;9.40;;
10651;SDS011;5374;42.742;23.266;2024-02-23T02:31:35;12.93;;;10.10;;
10651;SDS011;5374;42.742;23.266;2024-02-23T02:34:23;12.43;;;9.83;;
10651;SDS011;5374;42.742;23.266;2024-02-23T02:37:10;13.07;;;10.37;;
10651;SDS011;5374;42.742;23.266;2024-02-23T02:39:57;25.90;;;16.43;;
10651;SDS011;5374;42.742;23.266;2024-02-23T02:42:44;15.63;;;11.37;;
10651;SDS011;5374;42.742;23.266;2024-02-23T02:45:32;16.20;;;12.30;;
10651;SDS011;5374;42.742;23.266;2024-02-23T02:48:20;15.70;;;11.50;;
10651;SDS011;5374;42.742;23.266;2024-02-23T02:51:07;15.57;;;11.47;;
10651;SDS011;5374;42.742;23.266;2024-02-23T02:53:54;16.37;;;12.97;;
10651;SDS011;5374;42.742;23.266;2024-02-23T02:56:41;16.37;;;12.50;;
10651;SDS011;5374;42.742;23.266;2024-02-23T02:59:29;15.63;;;11.93;;
10651;SDS011;5374;42.742;23.266;2024-02-23T03:02:18;15.97;;;12.97;;
10651;SDS011;5374;42.742;23.266;2024-02-23T03:05:05;17.87;;;13.00;;
10651;SDS011;5374;42.742;23.266;2024-02-23T03:07:53;15.00;;;12.47;;
10651;SDS011;5374;42.742;23.266;2024-02-23T03:10:40;16.40;;;13.13;;
10651;SDS011;5374;42.742;23.266;2024-02-23T03:13:27;15.27;;;12.67;;
10651;SDS011;5374;42.742;23.266;2024-02-23T03:16:14;17.60;;;13.17;;
10651;SDS011;5374;42.742;23.266;2024-02-23T03:19:04;16.60;;;12.73;;
10651;SDS011;5374;42.742;23.266;2024-02-23T03:21:53;17.40;;;13.23;;
10651;SDS011;5374;42.742;23.266;2024-02-23T03:24:40;19.03;;;13.63;;
10651;SDS011;5374;42.742;23.266;2024-02-23T03:27:28;16.17;;;13.03;;
10651;SDS011;5374;42.742;23.266;2024-02-23T03:30:16;21.30;;;13.27;;
10651;SDS011;5374;42.742;23.266;2024-02-23T03:33:03;16.77;;;13.93;;
10651;SDS011;5374;42.742;23.266;2024-02-23T03:35:52;17.70;;;14.83;;
10651;SDS011;5374;42.742;23.266;2024-02-23T03:38:39;19.50;;;16.07;;
10651;SDS011;5374;42.742;23.266;2024-02-23T03:41:26;20.80;;;16.30;;
10651;SDS011;5374;42.742;23.266;2024-02-23T03:44:15;18.83;;;16.27;;
10651;SDS011;5374;42.742;23.266;2024-02-23T03:47:02;25.60;;;18.93;;
10651;SDS011;5374;42.742;23.266;2024-02-23T03:49:49;23.27;;;19.00;;
10651;SDS011;5374;42.742;23.266;2024-02-23T03:52:37;23.77;;;18.97;;
10651;SDS011;5374;42.742;23.266;2024-02-23T03:55:24;25.30;;;19.40;;
10651;SDS011;5374;42.742;23.266;2024-02-23T03:58:13;25.13;;;17.93;;
10651;SDS011;5374;42.742;23.266;2024-02-23T04:01:00;19.53;;;15.20;;
10651;SDS011;5374;42.742;23.266;2024-02-23T04:03:47;19.30;;;15.53;;
10651;SDS011;5374;42.742;23.266;2024-02-23T04:06:34;19.43;;;15.00;;
10651;SDS011;5374;42.742;23.266;2024-02-23T04:09:23;18.67;;;15.00;;
10651;SDS011;5374;42.742;23.266;2024-02-23T04:12:10;16.93;;;13.23;;
10651;SDS011;5374;42.742;23.266;2024-02-23T04:14:57;16.53;;;13.97;;
10651;SDS011;5374;42.742;23.266;2024-02-23T04:17:45;17.27;;;13.57;;
10651;SDS011;5374;42.742;23.266;2024-02-23T04:20:33;17.50;;;14.00;;
10651;SDS011;5374;42.742;23.266;2024-02-23T04:23:21;16.60;;;14.13;;
10651;SDS011;5374;42.742;23.266;2024-02-23T04:26:10;17.73;;;14.10;;
10651;SDS011;5374;42.742;23.266;2024-02-23T04:28:58;19.73;;;14.50;;
10651;SDS011;5374;42.742;23.266;2024-02-23T04:31:46;17.70;;;14.03;;
10651;SDS011;5374;42.742;23.266;2024-02-23T04:34:33;17.60;;;14.87;;
10651;SDS011;5374;42.742;23.266;2024-02-23T04:37:21;16.53;;;13.30;;
10651;SDS011;5374;42.742;23.266;2024-02-23T04:40:10;20.80;;;15.10;;
10651;SDS011;5374;42.742;23.266;2024-02-23T04:42:59;21.07;;;15.40;;
10651;SDS011;5374;42.742;23.266;2024-02-23T04:45:46;20.93;;;14.93;;
10651;SDS011;5374;42.742;23.266;2024-02-23T04:48:35;20.27;;;14.80;;
10651;SDS011;5374;42.742;23.266;2024-02-23T04:51:25;20.70;;;15.63;;
10651;SDS011;5374;42.742;23.266;2024-02-23T04:54:12;22.70;;;16.67;;
10651;SDS011;5374;42.742;23.266;2024-02-23T04:57:00;21.43;;;16.03;;
10651;SDS011;5374;42.742;23.266;2024-02-23T04:59:49;19.97;;;15.70;;
10651;SDS011;5374;42.742;23.266;2024-02-23T05:02:36;22.90;;;16.87;;
10651;SDS011;5374;42.742;23.266;2024-02-23T05:05:25;22.83;;;16.60;;
10651;SDS011;5374;42.742;23.266;2024-02-23T05:08:14;21.80;;;15.73;;
10651;SDS011;5374;42.742;23.266;2024-02-23T05:11:01;20.37;;;15.97;;
10651;SDS011;5374;42.742;23.266;2024-02-23T05:13:48;18.83;;;15.57;;
10651;SDS011;5374;42.742;23.266;2024-02-23T05:16:36;22.33;;;16.37;;
10651;SDS011;5374;42.742;23.266;2024-02-23T05:19:24;24.93;;;17.43;;
10651;SDS011;5374;42.742;23.266;2024-02-23T05:22:11;26.87;;;17.20;;
10651;SDS011;5374;42.742;23.266;2024-02-23T05:25:02;19.47;;;16.57;;
10651;SDS011;5374;42.742;23.266;2024-02-23T05:27:51;23.87;;;17.53;;
10651;SDS011;5374;42.742;23.266;2024-02-23T05:30:38;20.10;;;15.60;;
10651;SDS011;5374;42.742;23.266;2024-02-23T05:33:27;25.40;;;18.33;;
10651;SDS011;5374;42.742;23.266;2024-02-23T05:36:17;23.83;;;18.00;;
10651;SDS011;5374;42.742;23.266;2024-02-23T05:39:05;29.50;;;19.00;;
10651;SDS011;5374;42.742;23.266;2024-02-23T05:41:53;29.57;;;19.73;;
10651;SDS011;5374;42.742;23.266;2024-02-23T05:44:40;24.77;;;17.53;;
10651;SDS011;5374;42.742;23.266;2024-02-23T05:47:30;23.37;;;17.10;;
10651;SDS011;5374;42.742;23.266;2024-02-23T05:50:18;25.93;;;17.40;;
10651;SDS011;5374;42.742;23.266;2024-02-23T05:53:05;21.47;;;17.63;;
10651;SDS011;5374;42.742;23.266;2024-02-23T05:55:53;22.57;;;18.33;;
10651;SDS011;5374;42.742;23.266;2024-02-23T05:58:40;24.43;;;18.17;;
10651;SDS011;5374;42.742;23.266;2024-02-23T06:01:27;26.67;;;17.37;;
10651;SDS011;5374;42.742;23.266;2024-02-23T06:04:14;31.17;;;17.10;;
10651;SDS011;5374;42.742;23.266;2024-02-23T06:07:03;19.67;;;15.87;;
10651;SDS011;5374;42.742;23.266;2024-02-23T06:09:50;31.53;;;19.20;;
10651;SDS011;5374;42.742;23.266;2024-02-23T06:12:37;26.03;;;19.70;;
10651;SDS011;5374;42.742;23.266;2024-02-23T06:15:25;24.93;;;20.20;;
10651;SDS011;5374;42.742;23.266;2024-02-23T06:18:12;29.97;;;24.57;;
10651;SDS011;5374;42.742;23.266;2024-02-23T06:20:59;35.67;;;27.97;;
10651;SDS011;5374;42.742;23.266;2024-02-23T06:23:48;32.03;;;25.20;;
10651;SDS011;5374;42.742;23.266;2024-02-23T06:26:35;32.17;;;24.07;;
10651;SDS011;5374;42.742;23.266;2024-02-23T06:29:22;27.93;;;22.73;;
10651;SDS011;5374;42.742;23.266;2024-02-23T06:32:09;26.07;;;19.40;;
10651;SDS011;5374;42.742;23.266;2024-02-23T06:34:56;21.83;;;17.17;;
10651;SDS011;5374;42.742;23.266;2024-02-23T06:37:43;24.97;;;16.27;;
10651;SDS011;5374;42.742;23.266;2024-02-23T06:40:32;19.80;;;16.20;;
10651;SDS011;5374;42.742;23.266;2024-02-23T06:43:19;25.37;;;17.90;;
10651;SDS011;5374;42.742;23.266;2024-02-23T06:46:06;24.23;;;18.50;;
10651;SDS011;5374;42.742;23.266;2024-02-23T06:48:54;28.63;;;18.10;;
10651;SDS011;5374;42.742;23.266;2024-02-23T06:51:42;21.60;;;16.47;;
10651;SDS011;5374;42.742;23.266;2024-02-23T06:54:29;15.90;;;12.83;;
10651;SDS011;5374;42.742;23.266;2024-02-23T06:57:18;17.43;;;12.17;;
10651;SDS011;5374;42.742;23.266;2024-02-23T07:00:06;13.20;;;11.87;;
10651;SDS011;5374;42.742;23.266;2024-02-23T07:02:54;13.60;;;12.17;;
10651;SDS011;5374;42.742;23.266;2024-02-23T07:05:44;13.97;;;12.53;;
10651;SDS011;5374;42.742;23.266;2024-02-23T07:08:32;15.13;;;13.10;;
10651;SDS011;5374;42.742;23.266;2024-02-23T07:11:19;13.57;;;12.27;;
10651;SDS011;5374;42.742;23.266;2024-02-23T07:14:08;14.00;;;12.70;;
10651;SDS011;5374;42.742;23.266;2024-02-23T07:16:55;14.70;;;12.97;;
10651;SDS011;5374;42.742;23.266;2024-02-23T07:19:42;15.40;;;12.20;;
10651;SDS011;5374;42.742;23.266;2024-02-23T07:22:29;14.77;;;13.17;;
10651;SDS011;5374;42.742;23.266;2024-02-23T07:25:17;15.63;;;12.17;;
10651;SDS011;5374;42.742;23.266;2024-02-23T07:28:05;16.23;;;14.53;;
10651;SDS011;5374;42.742;23.266;2024-02-23T07:30:54;14.83;;;13.43;;
10651;SDS011;5374;42.742;23.266;2024-02-23T07:33:42;15.13;;;13.50;;
10651;SDS011;5374;42.742;23.266;2024-02-23T07:36:29;20.27;;;14.40;;
10651;SDS011;5374;42.742;23.266;2024-02-23T07:39:17;17.57;;;14.03;;
10651;SDS011;5374;42.742;23.266;2024-02-23T07:42:04;18.30;;;15.27;;
10651;SDS011;5374;42.742;23.266;2024-02-23T07:44:53;21.67;;;15.80;;
10651;SDS011;5374;42.742;23.266;2024-02-23T07:47:45;21.63;;;15.20;;
10651;SDS011;5374;42.742;23.266;2024-02-23T07:50:35;22.43;;;14.67;;
10651;SDS011;5374;42.742;23.266;2024-02-23T07:53:23;21.07;;;15.70;;
10651;SDS011;5374;42.742;23.266;2024-02-23T07:56:10;25.30;;;17.13;;
10651;SDS011;5374;42.742;23.266;2024-02-23T07:58:58;22.13;;;16.90;;
10651;SDS011;5374;42.742;23.266;2024-02-23T08:01:48;18.77;;;13.60;;
10651;SDS011;5374;42.742;23.266;2024-02-23T08:04:53;31.07;;;18.43;;
10651;SDS011;5374;42.742;23.266;2024-02-23T08:07:40;21.17;;;16.50;;
10651;SDS011;5374;42.742;23.266;2024-02-23T08:10:28;21.70;;;14.80;;
10651;SDS011;5374;42.742;23.266;2024-02-23T08:13:15;18.33;;;14.23;;
10651;SDS011;5374;42.742;23.266;2024-02-23T08:16:03;20.60;;;14.83;;
10651;SDS011;5374;42.742;23.266;2024-02-23T08:18:51;18.93;;;15.20;;
10651;SDS011;5374;42.742;23.266;2024-02-23T08:21:40;18.13;;;14.47;;
10651;SDS011;5374;42.742;23.266;2024-02-23T08:24:27;20.43;;;13.80;;
10651;SDS011;5374;42.742;23.266;2024-02-23T08:27:14;19.67;;;13.83;;
10651;SDS011;5374;42.742;23.266;2024-02-23T08:30:01;13.53;;;11.80;;
10651;SDS011;5374;42.742;23.266;2024-02-23T08:32:49;13.50;;;11.40;;
10651;SDS011;5374;42.742;23.266;2024-02-23T08:35:36;17.00;;;10.97;;
10651;SDS011;5374;42.742;23.266;2024-02-23T08:38:24;13.53;;;10.90;;
10651;SDS011;5374;42.742;23.266;2024-02-23T08:41:12;15.53;;;10.60;;
10651;SDS011;5374;42.742;23.266;2024-02-23T08:43:59;18.10;;;10.27;;
10651;SDS011;5374;42.742;23.266;2024-02-23T08:46:46;11.00;;;9.43;;
10651;SDS011;5374;42.742;23.266;2024-02-23T08:49:34;12.33;;;9.43;;
10651;SDS011;5374;42.742;23.266;2024-02-23T08:52:21;11.70;;;8.67;;
10651;SDS011;5374;42.742;23.266;2024-02-23T08:55:10;10.17;;;8.00;;
10651;SDS011;5374;42.742;23.266;2024-02-23T08:57:57;10.97;;;8.60;;
10651;SDS011;5374;42.742;23.266;2024-02-23T09:00:44;9.17;;;8.27;;
10651;SDS011;5374;42.742;23.266;2024-02-23T09:03:31;7.17;;;5.90;;
10651;SDS011;5374;42.742;23.266;2024-02-23T09:06:19;8.70;;;5.53;;
10651;SDS011;5374;42.742;23.266;2024-02-23T09:09:06;6.27;;;4.60;;
10651;SDS011;5374;42.742;23.266;2024-02-23T09:11:55;6.03;;;5.30;;
10651;SDS011;5374;42.742;23.266;2024-02-23T09:14:42;7.70;;;5.00;;
10651;SDS011;5374;42.742;23.266;2024-02-23T09:17:29;10.30;;;5.23;;
10651;SDS011;5374;42.742;23.266;2024-02-23T09:20:16;5.67;;;4.77;;
10651;SDS011;5374;42.742;23.266;2024-02-23T09:23:04;5.60;;;4.67;;
10651;SDS011;5374;42.742;23.266;2024-02-23T09:25:51;7.37;;;3.93;;
10651;SDS011;5374;42.742;23.266;2024-02-23T09:28:39;5.83;;;4.73;;
10651;SDS011;5374;42.742;23.266;2024-02-23T09:31:27;4.90;;;4.20;;
10651;SDS011;5374;42.742;23.266;2024-02-23T09:34:15;5.27;;;3.97;;
10651;SDS011;5374;42.742;23.266;2024-02-23T09:37:02;5.57;;;3.73;;
10651;SDS011;5374;42.742;23.266;2024-02-23T09:39:49;6.33;;;4.03;;
10651;SDS011;5374;42.742;23.266;2024-02-23T09:42:37;4.83;;;3.17;;
10651;SDS011;5374;42.742;23.266;2024-02-23T09:45:26;3.63;;;2.60;;
10651;SDS011;5374;42.742;23.266;2024-02-23T09:48:14;4.00;;;2.80;;
10651;SDS011;5374;42.742;23.266;2024-02-23T09:51:05;11.90;;;2.80;;
10651;SDS011;5374;42.742;23.266;2024-02-23T09:53:54;7.63;;;2.67;;
10651;SDS011;5374;42.742;23.266;2024-02-23T09:56:42;4.43;;;2.40;;
10651;SDS011;5374;42.742;23.266;2024-02-23T09:59:30;4.90;;;2.43;;
10651;SDS011;5374;42.742;23.266;2024-02-23T10:02:21;3.13;;;2.30;;
10651;SDS011;5374;42.742;23.266;2024-02-23T10:05:08;7.17;;;2.77;;
10651;SDS011;5374;42.742;23.266;2024-02-23T10:07:58;3.70;;;2.20;;
10651;SDS011;5374;42.742;23.266;2024-02-23T10:10:45;6.93;;;2.70;;
10651;SDS011;5374;42.742;23.266;2024-02-23T10:13:38;2.80;;;2.37;;
10651;SDS011;5374;42.742;23.266;2024-02-23T10:16:25;2.90;;;2.60;;
10651;SDS011;5374;42.742;23.266;2024-02-23T10:19:14;5.23;;;2.23;;
10651;SDS011;5374;42.742;23.266;2024-02-23T10:22:01;3.03;;;2.70;;
10651;SDS011;5374;42.742;23.266;2024-02-23T10:24:48;5.63;;;3.70;;
10651;SDS011;5374;42.742;23.266;2024-02-23T10:27:35;5.87;;;3.20;;
10651;SDS011;5374;42.742;23.266;2024-02-23T10:30:22;4.70;;;2.70;;
10651;SDS011;5374;42.742;23.266;2024-02-23T10:33:09;2.87;;;2.37;;
10651;SDS011;5374;42.742;23.266;2024-02-23T10:36:00;6.67;;;2.63;;
10651;SDS011;5374;42.742;23.266;2024-02-23T10:38:51;4.30;;;2.00;;
10651;SDS011;5374;42.742;23.266;2024-02-23T10:41:44;3.07;;;2.77;;
10651;SDS011;5374;42.742;23.266;2024-02-23T10:44:34;4.83;;;2.60;;
10651;SDS011;5374;42.742;23.266;2024-02-23T10:47:22;3.17;;;2.50;;
10651;SDS011;5374;42.742;23.266;2024-02-23T10:50:10;9.13;;;2.80;;
10651;SDS011;5374;42.742;23.266;2024-02-23T10:53:01;3.67;;;2.67;;
10651;SDS011;5374;42.742;23.266;2024-02-23T10:55:51;4.97;;;2.47;;
10651;SDS011;5374;42.742;23.266;2024-02-23T10:58:43;2.67;;;2.47;;
10651;SDS011;5374;42.742;23.266;2024-02-23T11:01:30;3.27;;;2.97;;
10651;SDS011;5374;42.742;23.266;2024-02-23T11:04:19;5.07;;;2.33;;
10651;SDS011;5374;42.742;23.266;2024-02-23T11:07:12;3.47;;;2.37;;
10651;SDS011;5374;42.742;23.266;2024-02-23T11:10:01;4.80;;;2.77;;
10651;SDS011;5374;42.742;23.266;2024-02-23T11:12:56;2.90;;;2.60;;
10651;SDS011;5374;42.742;23.266;2024-02-23T11:15:44;4.50;;;2.23;;
10651;SDS011;5374;42.742;23.266;2024-02-23T11:18:34;2.97;;;2.60;;
10651;SDS011;5374;42.742;23.266;2024-02-23T11:21:21;6.00;;;2.63;;
10651;SDS011;5374;42.742;23.266;2024-02-23T11:24:09;2.87;;;2.57;;
10651;SDS011;5374;42.742;23.266;2024-02-23T11:27:04;5.27;;;2.60;;
10651;SDS011;5374;42.742;23.266;2024-02-23T11:29:59;2.77;;;2.27;;
10651;SDS011;5374;42.742;23.266;2024-02-23T11:32:48;3.27;;;2.50;;
10651;SDS011;5374;42.742;23.266;2024-02-23T11:35:45;3.77;;;2.30;;
10651;SDS011;5374;42.742;23.266;2024-02-23T11:38:35;4.30;;;2.33;;
10651;SDS011;5374;42.742;23.266;2024-02-23T11:41:23;3.20;;;2.40;;
10651;SDS011;5374;42.742;23.266;2024-02-23T11:44:12;5.00;;;2.20;;
10651;SDS011;5374;42.742;23.266;2024-02-23T11:47:00;2.83;;;2.23;;
10651;SDS011;5374;42.742;23.266;2024-02-23T11:49:47;3.73;;;2.30;;
10651;SDS011;5374;42.742;23.266;2024-02-23T11:52:34;4.23;;;2.50;;
10651;SDS011;5374;42.742;23.266;2024-02-23T11:55:21;3.93;;;2.63;;
10651;SDS011;5374;42.742;23.266;2024-02-23T11:58:08;3.33;;;2.30;;
10651;SDS011;5374;42.742;23.266;2024-02-23T12:00:57;2.83;;;2.20;;
10651;SDS011;5374;42.742;23.266;2024-02-23T12:03:47;3.30;;;2.03;;
10651;SDS011;5374;42.742;23.266;2024-02-23T12:06:35;4.37;;;2.30;;
10651;SDS011;5374;42.742;23.266;2024-02-23T12:09:22;2.47;;;2.23;;
10651;SDS011;5374;42.742;23.266;2024-02-23T12:12:10;4.00;;;2.43;;
10651;SDS011;5374;42.742;23.266;2024-02-23T12:14:57;5.10;;;2.20;;
10651;SDS011;5374;42.742;23.266;2024-02-23T12:17:49;7.77;;;2.50;;
10651;SDS011;5374;42.742;23.266;2024-02-23T12:20:36;2.67;;;2.10;;
10651;SDS011;5374;42.742;23.266;2024-02-23T12:23:24;2.60;;;2.20;;
10651;SDS011;5374;42.742;23.266;2024-02-23T12:26:12;3.40;;;2.10;;
10651;SDS011;5374;42.742;23.266;2024-02-23T12:29:00;4.77;;;2.20;;
10651;SDS011;5374;42.742;23.266;2024-02-23T12:31:48;3.50;;;2.00;;
10651;SDS011;5374;42.742;23.266;2024-02-23T12:34:37;2.60;;;2.20;;
10651;SDS011;5374;42.742;23.266;2024-02-23T12:37:24;3.03;;;2.20;;
10651;SDS011;5374;42.742;23.266;2024-02-23T12:40:11;2.90;;;2.00;;
10651;SDS011;5374;42.742;23.266;2024-02-23T12:42:59;4.73;;;1.80;;
10651;SDS011;5374;42.742;23.266;2024-02-23T12:45:46;5.63;;;2.10;;
10651;SDS011;5374;42.742;23.266;2024-02-23T12:48:36;2.73;;;2.20;;
10651;SDS011;5374;42.742;23.266;2024-02-23T12:51:25;2.53;;;2.03;;
10651;SDS011;5374;42.742;23.266;2024-02-23T12:54:13;3.00;;;1.83;;
10651;SDS011;5374;42.742;23.266;2024-02-23T12:57:00;3.60;;;2.17;;
10651;SDS011;5374;42.742;23.266;2024-02-23T12:59:47;4.97;;;2.57;;
10651;SDS011;5374;42.742;23.266;2024-02-23T13:02:34;4.10;;;2.10;;
10651;SDS011;5374;42.742;23.266;2024-02-23T13:05:21;5.13;;;2.40;;
10651;SDS011;5374;42.742;23.266;2024-02-23T13:08:10;6.30;;;2.40;;
10651;SDS011;5374;42.742;23.266;2024-02-23T13:10:57;7.07;;;3.13;;
10651;SDS011;5374;42.742;23.266;2024-02-23T13:13:45;3.70;;;2.10;;
10651;SDS011;5374;42.742;23.266;2024-02-23T13:16:33;3.20;;;1.90;;
10651;SDS011;5374;42.742;23.266;2024-02-23T13:19:20;3.83;;;2.13;;
10651;SDS011;5374;42.742;23.266;2024-02-23T13:22:08;2.43;;;2.10;;
10651;SDS011;5374;42.742;23.266;2024-02-23T13:24:57;5.60;;;2.20;;
10651;SDS011;5374;42.742;23.266;2024-02-23T13:27:44;2.57;;;1.93;;
10651;SDS011;5374;42.742;23.266;2024-02-23T13:30:31;5.43;;;2.37;;
10651;SDS011;5374;42.742;23.266;2024-02-23T13:33:19;7.00;;;5.20;;
10651;SDS011;5374;42.742;23.266;2024-02-23T13:36:07;3.97;;;3.20;;
10651;SDS011;5374;42.742;23.266;2024-02-23T13:38:55;5.53;;;2.60;;
10651;SDS011;5374;42.742;23.266;2024-02-23T13:41:44;2.63;;;2.17;;
10651;SDS011;5374;42.742;23.266;2024-02-23T13:44:31;4.07;;;2.60;;
10651;SDS011;5374;42.742;23.266;2024-02-23T13:47:18;3.57;;;2.50;;
10651;SDS011;5374;42.742;23.266;2024-02-23T13:50:05;4.13;;;2.73;;
10651;SDS011;5374;42.742;23.266;2024-02-23T13:52:53;6.00;;;3.70;;
10651;SDS011;5374;42.742;23.266;2024-02-23T13:55:41;9.70;;;4.00;;
10651;SDS011;5374;42.742;23.266;2024-02-23T13:58:31;4.93;;;2.80;;
10651;SDS011;5374;42.742;23.266;2024-02-23T14:01:18;7.07;;;2.93;;
10651;SDS011;5374;42.742;23.266;2024-02-23T14:04:06;2.80;;;2.53;;
10651;SDS011;5374;42.742;23.266;2024-02-23T14:06:54;3.73;;;2.43;;
10651;SDS011;5374;42.742;23.266;2024-02-23T14:09:41;3.87;;;2.67;;
10651;SDS011;5374;42.742;23.266;2024-02-23T14:12:28;3.13;;;2.60;;
10651;SDS011;5374;42.742;23.266;2024-02-23T14:15:17;4.23;;;2.43;;
10651;SDS011;5374;42.742;23.266;2024-02-23T14:18:04;3.27;;;2.63;;
10651;SDS011;5374;42.742;23.266;2024-02-23T14:20:52;3.53;;;2.40;;
10651;SDS011;5374;42.742;23.266;2024-02-23T14:23:39;4.07;;;2.43;;
10651;SDS011;5374;42.742;23.266;2024-02-23T14:26:26;4.97;;;2.80;;
10651;SDS011;5374;42.742;23.266;2024-02-23T14:29:13;4.20;;;2.40;;
10651;SDS011;5374;42.742;23.266;2024-02-23T14:32:04;3.00;;;2.50;;
10651;SDS011;5374;42.742;23.266;2024-02-23T14:34:51;3.50;;;2.73;;
10651;SDS011;5374;42.742;23.266;2024-02-23T14:37:38;5.43;;;3.17;;
10651;SDS011;5374;42.742;23.266;2024-02-23T14:40:26;3.20;;;2.80;;
10651;SDS011;5374;42.742;23.266;2024-02-23T14:43:13;5.57;;;3.23;;
10651;SDS011;5374;42.742;23.266;2024-02-23T14:46:00;4.37;;;3.40;;
10651;SDS011;5374;42.742;23.266;2024-02-23T14:48:48;5.63;;;3.00;;
10651;SDS011;5374;42.742;23.266;2024-02-23T14:51:36;9.50;;;3.77;;
10651;SDS011;5374;42.742;23.266;2024-02-23T14:54:23;7.00;;;2.60;;
10651;SDS011;5374;42.742;23.266;2024-02-23T14:57:10;5.47;;;3.20;;
10651;SDS011;5374;42.742;23.266;2024-02-23T14:59:57;3.77;;;3.33;;
10651;SDS011;5374;42.742;23.266;2024-02-23T15:02:44;7.03;;;3.10;;
10651;SDS011;5374;42.742;23.266;2024-02-23T15:05:33;3.50;;;2.93;;
10651;SDS011;5374;42.742;23.266;2024-02-23T15:08:20;9.93;;;9.03;;
10651;SDS011;5374;42.742;23.266;2024-02-23T15:11:07;3.57;;;2.60;;
10651;SDS011;5374;42.742;23.266;2024-02-23T15:13:54;3.50;;;3.10;;
10651;SDS011;5374;42.742;23.266;2024-02-23T15:16:43;6.80;;;4.40;;
10651;SDS011;5374;42.742;23.266;2024-02-23T15:19:30;5.20;;;3.63;;
10651;SDS011;5374;42.742;23.266;2024-02-23T15:22:19;7.40;;;3.40;;
10651;SDS011;5374;42.742;23.266;2024-02-23T15:25:06;7.33;;;3.40;;
10651;SDS011;5374;42.742;23.266;2024-02-23T15:27:54;4.63;;;3.03;;
10651;SDS011;5374;42.742;23.266;2024-02-23T15:30:43;4.23;;;3.10;;
10651;SDS011;5374;42.742;23.266;2024-02-23T15:33:30;9.50;;;4.07;;
10651;SDS011;5374;42.742;23.266;2024-02-23T15:36:17;3.97;;;2.90;;
10651;SDS011;5374;42.742;23.266;2024-02-23T15:39:05;5.23;;;3.10;;
10651;SDS011;5374;42.742;23.266;2024-02-23T15:41:53;4.33;;;3.67;;
10651;SDS011;5374;42.742;23.266;2024-02-23T15:44:40;4.43;;;3.87;;
10651;SDS011;5374;42.742;23.266;2024-02-23T15:47:27;5.53;;;3.53;;
10651;SDS011;5374;42.742;23.266;2024-02-23T15:50:14;6.70;;;5.50;;
10651;SDS011;5374;42.742;23.266;2024-02-23T15:53:04;5.40;;;4.13;;
10651;SDS011;5374;42.742;23.266;2024-02-23T15:55:53;4.43;;;3.90;;
10651;SDS011;5374;42.742;23.266;2024-02-23T15:58:40;8.53;;;4.63;;
10651;SDS011;5374;42.742;23.266;2024-02-23T16:01:27;6.17;;;4.30;;
10651;SDS011;5374;42.742;23.266;2024-02-23T16:04:14;5.87;;;4.07;;
10651;SDS011;5374;42.742;23.266;2024-02-23T16:07:02;6.17;;;4.40;;
10651;SDS011;5374;42.742;23.266;2024-02-23T16:09:52;8.40;;;5.50;;
10651;SDS011;5374;42.742;23.266;2024-02-23T16:12:40;5.80;;;5.20;;
10651;SDS011;5374;42.742;23.266;2024-02-23T16:15:27;5.30;;;4.23;;
10651;SDS011;5374;42.742;23.266;2024-02-23T16:18:14;6.53;;;5.37;;
10651;SDS011;5374;42.742;23.266;2024-02-23T16:21:02;5.87;;;4.93;;
10651;SDS011;5374;42.742;23.266;2024-02-23T16:23:50;7.20;;;5.10;;
10651;SDS011;5374;42.742;23.266;2024-02-23T16:26:37;5.13;;;4.63;;
10651;SDS011;5374;42.742;23.266;2024-02-23T16:29:26;5.33;;;4.50;;
10651;SDS011;5374;42.742;23.266;2024-02-23T16:32:15;6.70;;;4.40;;
10651;SDS011;5374;42.742;23.266;2024-02-23T16:35:02;4.63;;;4.23;;
10651;SDS011;5374;42.742;23.266;2024-02-23T16:37:52;8.17;;;4.77;;